sensor_id;sensor_type;location;lat;lon;timestamp;P1;durP1;ratioP1;P2;durP2;ratioP2
71963;SDS011;59834;52.124;5.422;2023-04-06T00:00:48;9.63;;;4.15;;
71963;SDS011;59834;52.124;5.422;2023-04-06T00:03:15;13.67;;;5.03;;
71963;SDS011;59834;52.124;5.422;2023-04-06T00:05:42;12.65;;;4.63;;
71963;SDS011;59834;52.124;5.422;2023-04-06T00:08:08;8.30;;;4.22;;
71963;SDS011;59834;52.124;5.422;2023-04-06T00:10:35;8.73;;;4.40;;
71963;SDS011;59834;52.124;5.422;2023-04-06T00:13:01;7.93;;;4.40;;
71963;SDS011;59834;52.124;5.422;2023-04-06T00:15:28;8.23;;;4.60;;
71963;SDS011;59834;52.124;5.422;2023-04-06T00:17:55;11.85;;;4.97;;
71963;SDS011;59834;52.124;5.422;2023-04-06T00:20:22;13.20;;;4.70;;
71963;SDS011;59834;52.124;5.422;2023-04-06T00:22:48;9.27;;;4.20;;
71963;SDS011;59834;52.124;5.422;2023-04-06T00:25:16;9.48;;;4.72;;
71963;SDS011;59834;52.124;5.422;2023-04-06T00:27:42;9.67;;;6.17;;
71963;SDS011;59834;52.124;5.422;2023-04-06T00:30:09;10.02;;;5.43;;
71963;SDS011;59834;52.124;5.422;2023-04-06T00:32:36;11.48;;;4.80;;
71963;SDS011;59834;52.124;5.422;2023-04-06T00:35:03;8.43;;;4.82;;
71963;SDS011;59834;52.124;5.422;2023-04-06T00:37:31;8.57;;;4.45;;
71963;SDS011;59834;52.124;5.422;2023-04-06T00:39:58;10.77;;;4.33;;
71963;SDS011;59834;52.124;5.422;2023-04-06T00:42:24;12.30;;;5.03;;
71963;SDS011;59834;52.124;5.422;2023-04-06T00:44:53;11.80;;;4.75;;
71963;SDS011;59834;52.124;5.422;2023-04-06T00:47:20;11.98;;;4.70;;
71963;SDS011;59834;52.124;5.422;2023-04-06T00:49:48;12.00;;;4.60;;
71963;SDS011;59834;52.124;5.422;2023-04-06T00:52:15;9.33;;;4.63;;
71963;SDS011;59834;52.124;5.422;2023-04-06T00:54:42;11.27;;;4.82;;
71963;SDS011;59834;52.124;5.422;2023-04-06T00:57:09;11.93;;;5.28;;
71963;SDS011;59834;52.124;5.422;2023-04-06T00:59:37;13.50;;;5.78;;
71963;SDS011;59834;52.124;5.422;2023-04-06T01:02:04;9.60;;;5.45;;
71963;SDS011;59834;52.124;5.422;2023-04-06T01:04:31;13.47;;;5.60;;
71963;SDS011;59834;52.124;5.422;2023-04-06T01:06:58;11.18;;;5.47;;
71963;SDS011;59834;52.124;5.422;2023-04-06T01:09:27;11.65;;;5.97;;
71963;SDS011;59834;52.124;5.422;2023-04-06T01:11:58;14.10;;;5.43;;
71963;SDS011;59834;52.124;5.422;2023-04-06T01:14:25;11.52;;;5.97;;
71963;SDS011;59834;52.124;5.422;2023-04-06T01:16:51;19.37;;;6.60;;
71963;SDS011;59834;52.124;5.422;2023-04-06T01:19:18;11.55;;;5.47;;
71963;SDS011;59834;52.124;5.422;2023-04-06T01:21:46;11.02;;;5.75;;
71963;SDS011;59834;52.124;5.422;2023-04-06T01:24:15;10.65;;;5.40;;
71963;SDS011;59834;52.124;5.422;2023-04-06T01:26:43;9.27;;;6.10;;
71963;SDS011;59834;52.124;5.422;2023-04-06T01:29:10;13.07;;;5.97;;
71963;SDS011;59834;52.124;5.422;2023-04-06T01:31:37;13.63;;;6.35;;
71963;SDS011;59834;52.124;5.422;2023-04-06T01:34:04;13.18;;;5.53;;
71963;SDS011;59834;52.124;5.422;2023-04-06T01:36:31;11.77;;;6.20;;
71963;SDS011;59834;52.124;5.422;2023-04-06T01:38:57;12.82;;;5.95;;
71963;SDS011;59834;52.124;5.422;2023-04-06T01:41:24;10.10;;;5.50;;
71963;SDS011;59834;52.124;5.422;2023-04-06T01:43:51;14.50;;;6.57;;
71963;SDS011;59834;52.124;5.422;2023-04-06T01:46:20;12.88;;;5.22;;
71963;SDS011;59834;52.124;5.422;2023-04-06T01:48:47;16.52;;;6.55;;
71963;SDS011;59834;52.124;5.422;2023-04-06T01:51:13;10.40;;;5.55;;
71963;SDS011;59834;52.124;5.422;2023-04-06T01:53:40;13.73;;;5.90;;
71963;SDS011;59834;52.124;5.422;2023-04-06T01:56:07;10.48;;;6.25;;
71963;SDS011;59834;52.124;5.422;2023-04-06T01:58:34;11.73;;;5.53;;
71963;SDS011;59834;52.124;5.422;2023-04-06T02:01:01;11.70;;;6.38;;
71963;SDS011;59834;52.124;5.422;2023-04-06T02:03:28;15.00;;;5.88;;
71963;SDS011;59834;52.124;5.422;2023-04-06T02:05:55;8.13;;;5.23;;
71963;SDS011;59834;52.124;5.422;2023-04-06T02:08:21;8.10;;;5.00;;
71963;SDS011;59834;52.124;5.422;2023-04-06T02:10:47;12.88;;;5.93;;
71963;SDS011;59834;52.124;5.422;2023-04-06T02:13:14;13.25;;;6.43;;
71963;SDS011;59834;52.124;5.422;2023-04-06T02:15:40;11.70;;;5.35;;
71963;SDS011;59834;52.124;5.422;2023-04-06T02:18:07;14.70;;;6.07;;
71963;SDS011;59834;52.124;5.422;2023-04-06T02:20:34;11.07;;;5.28;;
71963;SDS011;59834;52.124;5.422;2023-04-06T02:23:00;8.55;;;5.20;;
71963;SDS011;59834;52.124;5.422;2023-04-06T02:25:27;11.93;;;6.05;;
71963;SDS011;59834;52.124;5.422;2023-04-06T02:27:54;10.27;;;5.50;;
71963;SDS011;59834;52.124;5.422;2023-04-06T02:30:20;10.50;;;5.03;;
71963;SDS011;59834;52.124;5.422;2023-04-06T02:32:46;12.05;;;4.80;;
71963;SDS011;59834;52.124;5.422;2023-04-06T02:35:13;10.30;;;5.05;;
71963;SDS011;59834;52.124;5.422;2023-04-06T02:37:39;10.27;;;5.45;;
71963;SDS011;59834;52.124;5.422;2023-04-06T02:40:06;8.85;;;5.13;;
71963;SDS011;59834;52.124;5.422;2023-04-06T02:42:33;13.80;;;5.47;;
71963;SDS011;59834;52.124;5.422;2023-04-06T02:45:01;10.48;;;6.13;;
71963;SDS011;59834;52.124;5.422;2023-04-06T02:47:27;10.80;;;5.65;;
71963;SDS011;59834;52.124;5.422;2023-04-06T02:49:54;9.77;;;5.40;;
71963;SDS011;59834;52.124;5.422;2023-04-06T02:52:20;13.35;;;5.47;;
71963;SDS011;59834;52.124;5.422;2023-04-06T02:54:47;7.80;;;4.37;;
71963;SDS011;59834;52.124;5.422;2023-04-06T02:57:13;10.15;;;4.97;;
71963;SDS011;59834;52.124;5.422;2023-04-06T02:59:40;9.15;;;5.05;;
71963;SDS011;59834;52.124;5.422;2023-04-06T03:02:06;10.88;;;5.88;;
71963;SDS011;59834;52.124;5.422;2023-04-06T03:04:33;11.90;;;5.55;;
71963;SDS011;59834;52.124;5.422;2023-04-06T03:06:59;13.57;;;5.30;;
71963;SDS011;59834;52.124;5.422;2023-04-06T03:09:26;12.55;;;5.63;;
71963;SDS011;59834;52.124;5.422;2023-04-06T03:11:53;10.90;;;5.00;;
71963;SDS011;59834;52.124;5.422;2023-04-06T03:14:19;14.40;;;5.63;;
71963;SDS011;59834;52.124;5.422;2023-04-06T03:16:49;14.85;;;5.05;;
71963;SDS011;59834;52.124;5.422;2023-04-06T03:19:15;10.73;;;5.47;;
71963;SDS011;59834;52.124;5.422;2023-04-06T03:21:42;11.43;;;5.22;;
71963;SDS011;59834;52.124;5.422;2023-04-06T03:24:08;11.50;;;5.65;;
71963;SDS011;59834;52.124;5.422;2023-04-06T03:26:35;17.25;;;6.15;;
71963;SDS011;59834;52.124;5.422;2023-04-06T03:29:01;11.20;;;5.47;;
71963;SDS011;59834;52.124;5.422;2023-04-06T03:31:28;9.80;;;5.13;;
71963;SDS011;59834;52.124;5.422;2023-04-06T03:33:54;10.60;;;4.93;;
71963;SDS011;59834;52.124;5.422;2023-04-06T03:36:21;10.77;;;5.00;;
71963;SDS011;59834;52.124;5.422;2023-04-06T03:38:47;14.25;;;5.60;;
71963;SDS011;59834;52.124;5.422;2023-04-06T03:41:14;12.23;;;5.20;;
71963;SDS011;59834;52.124;5.422;2023-04-06T03:43:40;8.63;;;5.00;;
71963;SDS011;59834;52.124;5.422;2023-04-06T03:46:07;7.45;;;4.60;;
71963;SDS011;59834;52.124;5.422;2023-04-06T03:48:33;6.50;;;4.72;;
71963;SDS011;59834;52.124;5.422;2023-04-06T03:51:00;10.77;;;4.85;;
71963;SDS011;59834;52.124;5.422;2023-04-06T03:53:26;8.95;;;4.45;;
71963;SDS011;59834;52.124;5.422;2023-04-06T03:55:53;10.97;;;5.13;;
71963;SDS011;59834;52.124;5.422;2023-04-06T03:58:19;11.27;;;3.90;;
71963;SDS011;59834;52.124;5.422;2023-04-06T04:00:46;10.63;;;4.72;;
71963;SDS011;59834;52.124;5.422;2023-04-06T04:03:12;11.23;;;4.88;;
71963;SDS011;59834;52.124;5.422;2023-04-06T04:05:39;11.15;;;4.68;;
71963;SDS011;59834;52.124;5.422;2023-04-06T04:08:05;8.63;;;4.50;;
71963;SDS011;59834;52.124;5.422;2023-04-06T04:10:31;7.95;;;4.60;;
71963;SDS011;59834;52.124;5.422;2023-04-06T04:12:58;11.07;;;5.93;;
71963;SDS011;59834;52.124;5.422;2023-04-06T04:15:24;11.23;;;6.28;;
71963;SDS011;59834;52.124;5.422;2023-04-06T04:17:51;10.80;;;6.22;;
71963;SDS011;59834;52.124;5.422;2023-04-06T04:20:18;11.03;;;5.30;;
71963;SDS011;59834;52.124;5.422;2023-04-06T04:22:44;8.15;;;4.97;;
71963;SDS011;59834;52.124;5.422;2023-04-06T04:25:11;10.35;;;5.63;;
71963;SDS011;59834;52.124;5.422;2023-04-06T04:27:37;13.23;;;4.95;;
71963;SDS011;59834;52.124;5.422;2023-04-06T04:30:04;11.13;;;4.70;;
71963;SDS011;59834;52.124;5.422;2023-04-06T04:32:31;10.37;;;4.57;;
71963;SDS011;59834;52.124;5.422;2023-04-06T04:34:58;10.15;;;4.75;;
71963;SDS011;59834;52.124;5.422;2023-04-06T04:37:24;11.10;;;5.45;;
71963;SDS011;59834;52.124;5.422;2023-04-06T04:39:51;11.57;;;5.22;;
71963;SDS011;59834;52.124;5.422;2023-04-06T04:42:18;12.02;;;4.90;;
71963;SDS011;59834;52.124;5.422;2023-04-06T04:44:44;10.37;;;4.50;;
71963;SDS011;59834;52.124;5.422;2023-04-06T04:47:10;10.10;;;5.38;;
71963;SDS011;59834;52.124;5.422;2023-04-06T04:49:37;13.52;;;5.32;;
71963;SDS011;59834;52.124;5.422;2023-04-06T04:52:03;13.38;;;4.90;;
71963;SDS011;59834;52.124;5.422;2023-04-06T04:54:30;11.90;;;5.05;;
71963;SDS011;59834;52.124;5.422;2023-04-06T04:56:56;8.03;;;4.83;;
71963;SDS011;59834;52.124;5.422;2023-04-06T04:59:23;9.05;;;4.75;;
71963;SDS011;59834;52.124;5.422;2023-04-06T05:01:49;10.02;;;5.35;;
71963;SDS011;59834;52.124;5.422;2023-04-06T05:04:20;9.07;;;5.90;;
71963;SDS011;59834;52.124;5.422;2023-04-06T05:06:47;14.60;;;5.90;;
71963;SDS011;59834;52.124;5.422;2023-04-06T05:09:13;8.83;;;5.50;;
71963;SDS011;59834;52.124;5.422;2023-04-06T05:11:39;17.17;;;5.63;;
71963;SDS011;59834;52.124;5.422;2023-04-06T05:14:06;10.80;;;5.80;;
71963;SDS011;59834;52.124;5.422;2023-04-06T05:16:34;10.13;;;5.20;;
71963;SDS011;59834;52.124;5.422;2023-04-06T05:19:01;12.60;;;6.53;;
71963;SDS011;59834;52.124;5.422;2023-04-06T05:21:27;19.43;;;6.13;;
71963;SDS011;59834;52.124;5.422;2023-04-06T05:23:54;11.60;;;6.28;;
71963;SDS011;59834;52.124;5.422;2023-04-06T05:26:21;16.35;;;6.07;;
71963;SDS011;59834;52.124;5.422;2023-04-06T05:28:47;12.15;;;6.18;;
71963;SDS011;59834;52.124;5.422;2023-04-06T05:31:14;10.35;;;6.07;;
71963;SDS011;59834;52.124;5.422;2023-04-06T05:33:42;15.07;;;6.97;;
71963;SDS011;59834;52.124;5.422;2023-04-06T05:36:09;10.45;;;5.93;;
71963;SDS011;59834;52.124;5.422;2023-04-06T05:38:39;13.55;;;6.22;;
71963;SDS011;59834;52.124;5.422;2023-04-06T05:41:06;15.48;;;7.32;;
71963;SDS011;59834;52.124;5.422;2023-04-06T05:43:32;13.27;;;6.63;;
71963;SDS011;59834;52.124;5.422;2023-04-06T05:45:59;12.80;;;6.43;;
71963;SDS011;59834;52.124;5.422;2023-04-06T05:48:25;11.32;;;6.53;;
71963;SDS011;59834;52.124;5.422;2023-04-06T05:50:52;12.05;;;6.18;;
71963;SDS011;59834;52.124;5.422;2023-04-06T05:53:19;10.95;;;6.10;;
71963;SDS011;59834;52.124;5.422;2023-04-06T05:55:47;12.13;;;7.05;;
71963;SDS011;59834;52.124;5.422;2023-04-06T05:58:13;17.20;;;7.20;;
71963;SDS011;59834;52.124;5.422;2023-04-06T06:00:40;13.75;;;7.10;;
71963;SDS011;59834;52.124;5.422;2023-04-06T06:03:09;12.10;;;6.75;;
71963;SDS011;59834;52.124;5.422;2023-04-06T06:05:35;19.88;;;7.32;;
71963;SDS011;59834;52.124;5.422;2023-04-06T06:08:02;14.15;;;7.55;;
71963;SDS011;59834;52.124;5.422;2023-04-06T06:10:28;17.10;;;7.40;;
71963;SDS011;59834;52.124;5.422;2023-04-06T06:12:55;12.80;;;6.72;;
71963;SDS011;59834;52.124;5.422;2023-04-06T06:15:21;15.63;;;8.05;;
71963;SDS011;59834;52.124;5.422;2023-04-06T06:17:48;15.05;;;6.88;;
71963;SDS011;59834;52.124;5.422;2023-04-06T06:20:15;18.05;;;8.27;;
71963;SDS011;59834;52.124;5.422;2023-04-06T06:22:41;19.33;;;7.70;;
71963;SDS011;59834;52.124;5.422;2023-04-06T06:25:08;11.05;;;7.35;;
71963;SDS011;59834;52.124;5.422;2023-04-06T06:27:35;12.30;;;7.68;;
71963;SDS011;59834;52.124;5.422;2023-04-06T06:30:02;15.32;;;7.55;;
71963;SDS011;59834;52.124;5.422;2023-04-06T06:32:28;12.90;;;7.38;;
71963;SDS011;59834;52.124;5.422;2023-04-06T06:34:55;15.93;;;8.07;;
71963;SDS011;59834;52.124;5.422;2023-04-06T06:37:21;18.13;;;7.53;;
71963;SDS011;59834;52.124;5.422;2023-04-06T06:39:48;12.55;;;7.20;;
71963;SDS011;59834;52.124;5.422;2023-04-06T06:42:14;15.88;;;8.05;;
71963;SDS011;59834;52.124;5.422;2023-04-06T06:44:41;17.58;;;7.90;;
71963;SDS011;59834;52.124;5.422;2023-04-06T06:47:07;13.17;;;7.47;;
71963;SDS011;59834;52.124;5.422;2023-04-06T06:49:34;12.93;;;6.63;;
71963;SDS011;59834;52.124;5.422;2023-04-06T06:52:00;14.68;;;7.43;;
71963;SDS011;59834;52.124;5.422;2023-04-06T06:54:27;11.55;;;6.70;;
71963;SDS011;59834;52.124;5.422;2023-04-06T06:56:54;15.32;;;7.97;;
71963;SDS011;59834;52.124;5.422;2023-04-06T06:59:21;18.53;;;7.50;;
71963;SDS011;59834;52.124;5.422;2023-04-06T07:01:49;17.88;;;8.35;;
71963;SDS011;59834;52.124;5.422;2023-04-06T07:04:16;18.20;;;7.78;;
71963;SDS011;59834;52.124;5.422;2023-04-06T07:06:42;15.38;;;7.68;;
71963;SDS011;59834;52.124;5.422;2023-04-06T07:09:09;16.48;;;8.27;;
71963;SDS011;59834;52.124;5.422;2023-04-06T07:11:36;13.63;;;7.57;;
71963;SDS011;59834;52.124;5.422;2023-04-06T07:14:02;18.08;;;8.30;;
71963;SDS011;59834;52.124;5.422;2023-04-06T07:16:29;18.08;;;9.75;;
71963;SDS011;59834;52.124;5.422;2023-04-06T07:18:56;13.07;;;8.38;;
71963;SDS011;59834;52.124;5.422;2023-04-06T07:21:23;15.27;;;8.38;;
71963;SDS011;59834;52.124;5.422;2023-04-06T07:23:49;15.27;;;8.17;;
71963;SDS011;59834;52.124;5.422;2023-04-06T07:26:16;18.38;;;8.73;;
71963;SDS011;59834;52.124;5.422;2023-04-06T07:28:43;20.52;;;9.70;;
71963;SDS011;59834;52.124;5.422;2023-04-06T07:31:09;16.45;;;9.10;;
71963;SDS011;59834;52.124;5.422;2023-04-06T07:33:36;22.58;;;8.85;;
71963;SDS011;59834;52.124;5.422;2023-04-06T07:36:03;15.00;;;8.67;;
71963;SDS011;59834;52.124;5.422;2023-04-06T07:38:30;16.80;;;9.05;;
71963;SDS011;59834;52.124;5.422;2023-04-06T07:40:56;21.50;;;9.25;;
71963;SDS011;59834;52.124;5.422;2023-04-06T07:43:23;18.23;;;8.50;;
71963;SDS011;59834;52.124;5.422;2023-04-06T07:45:49;17.70;;;9.07;;
71963;SDS011;59834;52.124;5.422;2023-04-06T07:48:16;20.70;;;9.47;;
71963;SDS011;59834;52.124;5.422;2023-04-06T07:50:43;19.25;;;9.57;;
71963;SDS011;59834;52.124;5.422;2023-04-06T07:53:09;17.35;;;8.98;;
71963;SDS011;59834;52.124;5.422;2023-04-06T07:55:36;18.88;;;9.27;;
71963;SDS011;59834;52.124;5.422;2023-04-06T07:58:03;19.35;;;9.73;;
71963;SDS011;59834;52.124;5.422;2023-04-06T08:00:29;19.37;;;9.27;;
71963;SDS011;59834;52.124;5.422;2023-04-06T08:02:56;20.02;;;8.40;;
71963;SDS011;59834;52.124;5.422;2023-04-06T08:05:23;17.05;;;8.77;;
71963;SDS011;59834;52.124;5.422;2023-04-06T08:07:49;18.98;;;9.30;;
71963;SDS011;59834;52.124;5.422;2023-04-06T08:10:16;18.48;;;10.25;;
71963;SDS011;59834;52.124;5.422;2023-04-06T08:12:42;18.77;;;9.60;;
71963;SDS011;59834;52.124;5.422;2023-04-06T08:15:09;19.20;;;9.05;;
71963;SDS011;59834;52.124;5.422;2023-04-06T08:17:36;17.40;;;9.20;;
71963;SDS011;59834;52.124;5.422;2023-04-06T08:20:02;19.55;;;9.00;;
71963;SDS011;59834;52.124;5.422;2023-04-06T08:22:30;19.95;;;9.90;;
71963;SDS011;59834;52.124;5.422;2023-04-06T08:24:56;19.50;;;9.20;;
71963;SDS011;59834;52.124;5.422;2023-04-06T08:27:22;18.65;;;10.05;;
71963;SDS011;59834;52.124;5.422;2023-04-06T08:29:49;20.40;;;9.75;;
71963;SDS011;59834;52.124;5.422;2023-04-06T08:32:15;22.85;;;10.95;;
71963;SDS011;59834;52.124;5.422;2023-04-06T08:34:42;17.83;;;9.98;;
71963;SDS011;59834;52.124;5.422;2023-04-06T08:37:08;20.00;;;10.30;;
71963;SDS011;59834;52.124;5.422;2023-04-06T08:39:35;21.38;;;11.43;;
71963;SDS011;59834;52.124;5.422;2023-04-06T08:42:02;17.63;;;10.10;;
71963;SDS011;59834;52.124;5.422;2023-04-06T08:44:29;20.88;;;10.13;;
71963;SDS011;59834;52.124;5.422;2023-04-06T08:46:58;16.30;;;10.65;;
71963;SDS011;59834;52.124;5.422;2023-04-06T08:49:26;20.83;;;11.10;;
71963;SDS011;59834;52.124;5.422;2023-04-06T08:51:54;19.80;;;10.25;;
71963;SDS011;59834;52.124;5.422;2023-04-06T08:54:21;18.23;;;10.68;;
71963;SDS011;59834;52.124;5.422;2023-04-06T08:56:48;24.48;;;11.20;;
71963;SDS011;59834;52.124;5.422;2023-04-06T08:59:15;22.08;;;10.98;;
71963;SDS011;59834;52.124;5.422;2023-04-06T09:01:41;21.27;;;10.37;;
71963;SDS011;59834;52.124;5.422;2023-04-06T09:04:12;22.40;;;11.15;;
71963;SDS011;59834;52.124;5.422;2023-04-06T09:06:39;20.75;;;11.18;;
71963;SDS011;59834;52.124;5.422;2023-04-06T09:09:07;20.83;;;11.52;;
71963;SDS011;59834;52.124;5.422;2023-04-06T09:11:47;22.13;;;10.73;;
71963;SDS011;59834;52.124;5.422;2023-04-06T09:14:15;25.37;;;11.47;;
71963;SDS011;59834;52.124;5.422;2023-04-06T09:16:43;18.45;;;11.15;;
71963;SDS011;59834;52.124;5.422;2023-04-06T09:19:12;19.02;;;11.45;;
71963;SDS011;59834;52.124;5.422;2023-04-06T09:21:39;18.67;;;11.48;;
71963;SDS011;59834;52.124;5.422;2023-04-06T09:24:08;25.60;;;11.05;;
71963;SDS011;59834;52.124;5.422;2023-04-06T09:26:45;21.80;;;11.63;;
71963;SDS011;59834;52.124;5.422;2023-04-06T09:29:25;20.83;;;11.00;;
71963;SDS011;59834;52.124;5.422;2023-04-06T09:32:01;22.15;;;11.60;;
71963;SDS011;59834;52.124;5.422;2023-04-06T09:34:33;23.42;;;11.50;;
71963;SDS011;59834;52.124;5.422;2023-04-06T09:37:00;21.40;;;11.30;;
71963;SDS011;59834;52.124;5.422;2023-04-06T09:39:37;17.90;;;11.37;;
71963;SDS011;59834;52.124;5.422;2023-04-06T09:42:04;17.70;;;10.50;;
71963;SDS011;59834;52.124;5.422;2023-04-06T09:44:30;25.20;;;11.43;;
71963;SDS011;59834;52.124;5.422;2023-04-06T09:46:57;21.17;;;11.93;;
71963;SDS011;59834;52.124;5.422;2023-04-06T09:49:27;25.20;;;12.05;;
71963;SDS011;59834;52.124;5.422;2023-04-06T09:52:03;20.17;;;10.83;;
71963;SDS011;59834;52.124;5.422;2023-04-06T09:54:33;23.50;;;11.68;;
71963;SDS011;59834;52.124;5.422;2023-04-06T09:57:13;22.27;;;11.43;;
71963;SDS011;59834;52.124;5.422;2023-04-06T09:59:56;26.77;;;12.15;;
71963;SDS011;59834;52.124;5.422;2023-04-06T10:02:39;24.48;;;12.68;;
71963;SDS011;59834;52.124;5.422;2023-04-06T10:08:05;30.33;;;13.40;;
71963;SDS011;59834;52.124;5.422;2023-04-06T10:10:34;23.88;;;13.23;;
71963;SDS011;59834;52.124;5.422;2023-04-06T10:13:02;32.10;;;12.80;;
71963;SDS011;59834;52.124;5.422;2023-04-06T10:15:30;23.35;;;11.38;;
71963;SDS011;59834;52.124;5.422;2023-04-06T10:17:57;22.17;;;11.07;;
71963;SDS011;59834;52.124;5.422;2023-04-06T10:23:05;18.20;;;10.05;;
71963;SDS011;59834;52.124;5.422;2023-04-06T10:25:34;17.67;;;9.60;;
71963;SDS011;59834;52.124;5.422;2023-04-06T10:28:04;17.02;;;9.65;;
71963;SDS011;59834;52.124;5.422;2023-04-06T10:30:32;22.60;;;9.60;;
71963;SDS011;59834;52.124;5.422;2023-04-06T10:35:44;20.10;;;9.80;;
71963;SDS011;59834;52.124;5.422;2023-04-06T10:38:11;13.82;;;7.63;;
71963;SDS011;59834;52.124;5.422;2023-04-06T10:40:40;13.40;;;7.03;;
71963;SDS011;59834;52.124;5.422;2023-04-06T10:43:19;14.83;;;6.27;;
71963;SDS011;59834;52.124;5.422;2023-04-06T10:45:56;7.22;;;4.97;;
71963;SDS011;59834;52.124;5.422;2023-04-06T10:48:24;8.90;;;5.18;;
71963;SDS011;59834;52.124;5.422;2023-04-06T10:50:51;8.00;;;4.32;;
71963;SDS011;59834;52.124;5.422;2023-04-06T10:53:22;6.95;;;4.45;;
71963;SDS011;59834;52.124;5.422;2023-04-06T10:55:54;6.87;;;4.10;;
71963;SDS011;59834;52.124;5.422;2023-04-06T10:58:26;8.55;;;3.88;;
71963;SDS011;59834;52.124;5.422;2023-04-06T11:00:53;7.40;;;3.75;;
71963;SDS011;59834;52.124;5.422;2023-04-06T11:03:21;5.95;;;3.53;;
71963;SDS011;59834;52.124;5.422;2023-04-06T11:05:48;5.30;;;4.00;;
71963;SDS011;59834;52.124;5.422;2023-04-06T11:08:27;4.90;;;3.30;;
71963;SDS011;59834;52.124;5.422;2023-04-06T11:11:04;7.72;;;3.05;;
71963;SDS011;59834;52.124;5.422;2023-04-06T11:13:46;5.97;;;2.88;;
71963;SDS011;59834;52.124;5.422;2023-04-06T11:18:59;4.78;;;2.75;;
71963;SDS011;59834;52.124;5.422;2023-04-06T11:24:10;5.07;;;2.25;;
71963;SDS011;59834;52.124;5.422;2023-04-06T11:26:48;8.32;;;2.70;;
71963;SDS011;59834;52.124;5.422;2023-04-06T11:29:15;6.72;;;2.92;;
71963;SDS011;59834;52.124;5.422;2023-04-06T11:34:27;6.53;;;3.40;;
71963;SDS011;59834;52.124;5.422;2023-04-06T11:39:25;5.40;;;2.97;;
71963;SDS011;59834;52.124;5.422;2023-04-06T11:41:54;4.75;;;2.97;;
71963;SDS011;59834;52.124;5.422;2023-04-06T11:44:37;4.35;;;2.80;;
71963;SDS011;59834;52.124;5.422;2023-04-06T11:47:08;7.17;;;2.43;;
71963;SDS011;59834;52.124;5.422;2023-04-06T11:49:37;5.10;;;2.63;;
71963;SDS011;59834;52.124;5.422;2023-04-06T11:52:14;4.60;;;1.95;;
71963;SDS011;59834;52.124;5.422;2023-04-06T11:54:42;4.05;;;2.03;;
71963;SDS011;59834;52.124;5.422;2023-04-06T11:57:08;4.47;;;2.10;;
71963;SDS011;59834;52.124;5.422;2023-04-06T11:59:35;3.77;;;2.23;;
71963;SDS011;59834;52.124;5.422;2023-04-06T12:02:02;4.63;;;2.60;;
71963;SDS011;59834;52.124;5.422;2023-04-06T12:04:29;6.40;;;2.72;;
71963;SDS011;59834;52.124;5.422;2023-04-06T12:06:57;5.30;;;2.67;;
71963;SDS011;59834;52.124;5.422;2023-04-06T12:09:23;6.75;;;2.63;;
71963;SDS011;59834;52.124;5.422;2023-04-06T12:11:50;6.03;;;3.37;;
71963;SDS011;59834;52.124;5.422;2023-04-06T12:14:18;5.85;;;3.00;;
71963;SDS011;59834;52.124;5.422;2023-04-06T12:16:44;6.57;;;3.35;;
71963;SDS011;59834;52.124;5.422;2023-04-06T12:19:12;6.07;;;3.00;;
71963;SDS011;59834;52.124;5.422;2023-04-06T12:21:38;6.80;;;3.28;;
71963;SDS011;59834;52.124;5.422;2023-04-06T12:24:05;5.83;;;2.93;;
71963;SDS011;59834;52.124;5.422;2023-04-06T12:26:33;5.72;;;3.45;;
71963;SDS011;59834;52.124;5.422;2023-04-06T12:29:00;5.20;;;3.38;;
71963;SDS011;59834;52.124;5.422;2023-04-06T12:31:34;6.10;;;3.50;;
71963;SDS011;59834;52.124;5.422;2023-04-06T12:34:02;6.90;;;3.65;;
71963;SDS011;59834;52.124;5.422;2023-04-06T12:36:29;6.93;;;3.70;;
71963;SDS011;59834;52.124;5.422;2023-04-06T12:38:57;5.80;;;3.88;;
71963;SDS011;59834;52.124;5.422;2023-04-06T12:41:26;5.15;;;3.55;;
71963;SDS011;59834;52.124;5.422;2023-04-06T12:43:53;5.53;;;3.42;;
71963;SDS011;59834;52.124;5.422;2023-04-06T12:46:20;7.43;;;3.95;;
71963;SDS011;59834;52.124;5.422;2023-04-06T12:48:47;8.87;;;4.33;;
71963;SDS011;59834;52.124;5.422;2023-04-06T12:51:14;5.53;;;3.83;;
71963;SDS011;59834;52.124;5.422;2023-04-06T12:53:41;6.70;;;3.78;;
71963;SDS011;59834;52.124;5.422;2023-04-06T12:56:14;8.73;;;3.67;;
71963;SDS011;59834;52.124;5.422;2023-04-06T12:58:44;5.90;;;3.13;;
71963;SDS011;59834;52.124;5.422;2023-04-06T13:01:11;7.33;;;4.00;;
71963;SDS011;59834;52.124;5.422;2023-04-06T13:03:42;6.60;;;4.05;;
71963;SDS011;59834;52.124;5.422;2023-04-06T13:06:09;6.35;;;3.58;;
71963;SDS011;59834;52.124;5.422;2023-04-06T13:08:36;5.88;;;3.40;;
71963;SDS011;59834;52.124;5.422;2023-04-06T13:11:04;7.47;;;3.70;;
71963;SDS011;59834;52.124;5.422;2023-04-06T13:13:34;9.53;;;3.33;;
71963;SDS011;59834;52.124;5.422;2023-04-06T13:16:06;6.80;;;3.63;;
71963;SDS011;59834;52.124;5.422;2023-04-06T13:18:35;7.68;;;3.85;;
71963;SDS011;59834;52.124;5.422;2023-04-06T13:21:05;11.63;;;4.43;;
71963;SDS011;59834;52.124;5.422;2023-04-06T13:23:32;7.43;;;3.88;;
71963;SDS011;59834;52.124;5.422;2023-04-06T13:26:03;7.33;;;3.70;;
71963;SDS011;59834;52.124;5.422;2023-04-06T13:28:32;8.15;;;4.03;;
71963;SDS011;59834;52.124;5.422;2023-04-06T13:31:01;6.43;;;3.88;;
71963;SDS011;59834;52.124;5.422;2023-04-06T13:33:28;8.85;;;3.60;;
71963;SDS011;59834;52.124;5.422;2023-04-06T13:35:58;10.77;;;4.70;;
71963;SDS011;59834;52.124;5.422;2023-04-06T13:38:27;6.53;;;4.40;;
71963;SDS011;59834;52.124;5.422;2023-04-06T13:40:54;6.53;;;4.75;;
71963;SDS011;59834;52.124;5.422;2023-04-06T13:43:21;6.43;;;3.90;;
71963;SDS011;59834;52.124;5.422;2023-04-06T13:45:51;5.80;;;3.72;;
71963;SDS011;59834;52.124;5.422;2023-04-06T13:48:21;7.70;;;4.07;;
71963;SDS011;59834;52.124;5.422;2023-04-06T13:50:47;8.97;;;4.10;;
71963;SDS011;59834;52.124;5.422;2023-04-06T13:53:16;5.63;;;4.10;;
71963;SDS011;59834;52.124;5.422;2023-04-06T13:55:51;6.15;;;4.47;;
71963;SDS011;59834;52.124;5.422;2023-04-06T13:58:20;7.55;;;3.67;;
71963;SDS011;59834;52.124;5.422;2023-04-06T14:00:46;8.55;;;4.13;;
71963;SDS011;59834;52.124;5.422;2023-04-06T14:03:13;7.23;;;3.87;;
71963;SDS011;59834;52.124;5.422;2023-04-06T14:05:40;5.13;;;3.50;;
71963;SDS011;59834;52.124;5.422;2023-04-06T14:08:07;6.95;;;4.03;;
71963;SDS011;59834;52.124;5.422;2023-04-06T14:10:40;6.95;;;4.07;;
71963;SDS011;59834;52.124;5.422;2023-04-06T14:13:08;8.05;;;4.20;;
71963;SDS011;59834;52.124;5.422;2023-04-06T14:15:34;8.13;;;3.90;;
71963;SDS011;59834;52.124;5.422;2023-04-06T14:18:01;6.72;;;4.20;;
71963;SDS011;59834;52.124;5.422;2023-04-06T14:20:30;9.05;;;4.47;;
71963;SDS011;59834;52.124;5.422;2023-04-06T14:23:02;8.95;;;4.70;;
71963;SDS011;59834;52.124;5.422;2023-04-06T14:25:29;7.00;;;3.63;;
71963;SDS011;59834;52.124;5.422;2023-04-06T14:28:01;9.07;;;4.43;;
71963;SDS011;59834;52.124;5.422;2023-04-06T14:30:29;6.47;;;3.67;;
71963;SDS011;59834;52.124;5.422;2023-04-06T14:32:56;6.47;;;4.05;;
71963;SDS011;59834;52.124;5.422;2023-04-06T14:35:24;7.80;;;3.85;;
71963;SDS011;59834;52.124;5.422;2023-04-06T14:37:51;9.43;;;3.90;;
71963;SDS011;59834;52.124;5.422;2023-04-06T14:40:18;8.83;;;4.17;;
71963;SDS011;59834;52.124;5.422;2023-04-06T14:42:44;5.50;;;4.05;;
71963;SDS011;59834;52.124;5.422;2023-04-06T14:45:11;7.32;;;4.03;;
71963;SDS011;59834;52.124;5.422;2023-04-06T14:47:37;8.35;;;3.85;;
71963;SDS011;59834;52.124;5.422;2023-04-06T14:50:04;7.22;;;3.92;;
71963;SDS011;59834;52.124;5.422;2023-04-06T14:52:31;9.63;;;4.07;;
71963;SDS011;59834;52.124;5.422;2023-04-06T14:54:58;8.65;;;3.78;;
71963;SDS011;59834;52.124;5.422;2023-04-06T14:57:24;7.13;;;4.20;;
71963;SDS011;59834;52.124;5.422;2023-04-06T14:59:52;7.72;;;4.93;;